Edinburg, Ohio
Current Conditions -  °F | °C
As of 7:35 AM on Monday 26 Jan 2015 (Local Time) from KPOV Reporting Station
Light Snow Light Snow  
Wind Chill:   Ceiling: 2600
Heat Index: 18°   Visibility: 3mi
Dew Point: 14°   Wind: 7mph
Humidity: 83%   Direction: 10°N
Pressure: 29.77"   Gusts: NA
Location:  41.0883°N, 81.2°W
Report Text: KPOV 261235Z AUTO 01006KT 3SM -SN OVC026 M08/M10 A2977 RMK AO2 T10781102
Loading
Personal Weather Stations






























Interactive Weather Map New forecast layout! Learn more

10-Day Weather Forecast

Advertisements
Track Severe Weather on mobile